Terminal Aerodrome Forecast
Issued by NWS

Home | Current Version | Previous Version | Text Only | Print | Product List | Glossary On
Versions: 1 2 3 4 5 6 7 8 9 10 11 12 13 14 15
000
FTUS43 KGLD 201720
TAFMCK
TAF
KMCK 201720Z 2018/2118 19007KT P6SM SKC
     FM202000 19010KT P6SM FEW150
     FM210500 20008KT P6SM SCT150 WS020/20040KT
     FM210900 21006KT P6SM FEW250=

USA.gov is the U.S. government's official web portal to all federal, state and local government web resources and services.